createdAt,value
2023-02-27T00:00:57.057Z,100333.94
2023-02-27T00:03:24.442Z,100336.81
2023-02-27T00:05:51.382Z,100342.81
2023-02-27T00:08:18.682Z,100335.00
2023-02-27T00:10:45.730Z,100349.38
2023-02-27T00:13:12.770Z,100348.50
2023-02-27T00:15:41.235Z,100333.50
2023-02-27T00:18:18.017Z,100336.13
2023-02-27T00:20:48.950Z,100329.47
2023-02-27T00:23:16.088Z,100341.56
2023-02-27T00:25:43.165Z,100337.34
2023-02-27T00:28:10.079Z,100335.06
2023-02-27T00:30:37.041Z,100335.34
2023-02-27T00:33:05.071Z,100339.66
2023-02-27T00:35:33.569Z,100348.22
2023-02-27T00:38:00.642Z,100343.66
2023-02-27T00:40:27.571Z,100331.69
2023-02-27T00:42:54.560Z,100326.38
2023-02-27T00:45:21.522Z,100333.81
2023-02-27T00:47:49.630Z,100320.47
2023-02-27T00:50:16.800Z,100317.69
2023-02-27T00:52:44.003Z,100332.84
2023-02-27T00:55:11.067Z,100317.13
2023-02-27T00:57:39.431Z,100323.56
2023-02-27T01:00:10.772Z,100326.75
2023-02-27T01:02:38.012Z,100325.94
2023-02-27T01:05:05.366Z,100324.00
2023-02-27T01:07:32.865Z,100317.59
2023-02-27T01:10:02.127Z,100324.41
2023-02-27T01:12:29.204Z,100320.22
2023-02-27T01:14:56.188Z,100312.84
2023-02-27T01:17:23.178Z,100321.63
2023-02-27T01:19:50.077Z,100327.03
2023-02-27T01:22:16.992Z,100325.22
2023-02-27T01:24:43.832Z,100330.94
2023-02-27T01:27:10.810Z,100322.03
2023-02-27T01:29:37.792Z,100325.63
2023-02-27T01:32:04.853Z,100327.56
2023-02-27T01:34:34.116Z,100337.31
2023-02-27T01:37:02.012Z,100323.25
2023-02-27T01:39:29.499Z,100338.16
2023-02-27T01:41:56.447Z,100339.66
2023-02-27T01:44:27.186Z,100332.59
2023-02-27T01:46:54.011Z,100333.13
2023-02-27T01:49:28.429Z,100344.00
2023-02-27T01:52:07.676Z,100338.97
2023-02-27T01:54:40.741Z,100343.81
2023-02-27T01:57:09.872Z,100343.81
2023-02-27T01:59:40.327Z,100343.28
2023-02-27T02:02:17.491Z,100351.75
2023-02-27T02:04:44.537Z,100357.75
2023-02-27T02:07:15.501Z,100365.25
2023-02-27T02:09:47.234Z,100370.81
2023-02-27T02:12:16.333Z,100370.53
2023-02-27T02:14:43.967Z,100376.66
2023-02-27T02:17:44.152Z,100365.94
2023-02-27T02:20:41.641Z,100369.13
2023-02-27T02:23:26.875Z,100363.00
2023-02-27T02:26:24.984Z,100371.63
2023-02-27T02:29:25.485Z,100376.94
2023-02-27T02:32:10.683Z,100375.78
2023-02-27T02:34:43.281Z,100389.28
2023-02-27T02:37:44.930Z,100391.53
2023-02-27T02:40:16.958Z,100388.22
2023-02-27T02:43:06.319Z,100390.28
2023-02-27T02:46:14.964Z,100388.03
2023-02-27T02:48:54.642Z,100392.38
2023-02-27T02:51:55.731Z,100400.72
2023-02-27T02:54:34.084Z,100398.50
2023-02-27T02:57:16.338Z,100399.63
2023-02-27T02:59:46.484Z,100379.97
2023-02-27T03:02:18.808Z,100406.88
2023-02-27T03:05:02.326Z,100399.47
2023-02-27T03:07:40.304Z,100404.94
2023-02-27T03:10:48.488Z,100406.44
2023-02-27T03:13:27.763Z,100412.72
2023-02-27T03:16:06.488Z,100413.69
2023-02-27T03:18:54.136Z,100429.00
2023-02-27T03:21:34.492Z,100420.81
2023-02-27T03:24:06.607Z,100434.19
2023-02-27T03:26:41.468Z,100425.28
2023-02-27T03:29:12.355Z,100439.06
2023-02-27T03:31:47.915Z,100429.75
2023-02-27T03:34:19.790Z,100454.56
2023-02-27T03:36:49.742Z,100456.78
2023-02-27T03:39:45.629Z,100456.66
2023-02-27T03:42:15.989Z,100455.66
2023-02-27T03:45:30.022Z,100452.91
2023-02-27T03:47:57.331Z,100457.91
2023-02-27T03:50:25.037Z,100459.28
2023-02-27T03:52:52.414Z,100456.09
2023-02-27T03:55:30.509Z,100459.00
2023-02-27T03:57:57.702Z,100466.53
2023-02-27T04:00:26.210Z,100459.97
2023-02-27T04:02:56.182Z,100465.66
2023-02-27T04:05:28.966Z,100461.63
2023-02-27T04:08:15.751Z,100468.31
2023-02-27T04:11:07.058Z,100469.00
2023-02-27T04:13:44.361Z,100470.13
2023-02-27T04:16:38.514Z,100487.94
2023-02-27T04:19:32.961Z,100472.34
2023-02-27T04:22:11.082Z,100483.06
2023-02-27T04:25:15.948Z,100483.66
2023-02-27T04:28:19.382Z,100489.06
2023-02-27T04:30:49.012Z,100492.41
2023-02-27T04:33:18.892Z,100492.28
2023-02-27T04:36:17.979Z,100495.50
2023-02-27T04:38:51.933Z,100502.75
2023-02-27T04:41:28.360Z,100498.00
2023-02-27T04:43:56.886Z,100515.31
2023-02-27T04:46:28.135Z,100511.13
2023-02-27T04:49:04.381Z,100505.38
2023-02-27T04:51:42.753Z,100508.91
2023-02-27T04:54:17.903Z,100517.09
2023-02-27T04:56:49.707Z,100515.97
2023-02-27T04:59:26.136Z,100523.25
2023-02-27T05:02:04.671Z,100511.66
2023-02-27T05:04:35.737Z,100519.19
2023-02-27T05:07:05.869Z,100520.84
2023-02-27T05:10:25.116Z,100513.78
2023-02-27T05:12:58.414Z,100526.84
2023-02-27T05:15:35.813Z,100537.72
2023-02-27T05:18:17.141Z,100545.38
2023-02-27T05:21:41.665Z,100539.25
2023-02-27T05:24:21.428Z,100542.63
2023-02-27T05:27:02.963Z,100539.69
2023-02-27T05:29:41.747Z,100545.38
2023-02-27T05:32:15.072Z,100551.53
2023-02-27T05:34:52.462Z,100553.91
2023-02-27T05:37:48.188Z,100557.94
2023-02-27T05:40:31.374Z,100552.09
2023-02-27T05:43:06.624Z,100556.41
2023-02-27T05:45:37.032Z,100556.84
2023-02-27T05:48:09.152Z,100566.31
2023-02-27T05:50:39.270Z,100565.75
2023-02-27T05:53:14.267Z,100567.97
2023-02-27T05:55:56.776Z,100568.81
2023-02-27T05:59:23.097Z,100576.22
2023-02-27T06:01:50.052Z,100574.22
2023-02-27T06:04:16.913Z,100582.59
2023-02-27T06:06:45.229Z,100578.00
2023-02-27T06:09:12.070Z,100588.75
2023-02-27T06:11:38.866Z,100587.34
2023-02-27T06:14:05.837Z,100586.34
2023-02-27T06:16:32.955Z,100596.94
2023-02-27T06:18:59.982Z,100606.59
2023-02-27T06:21:26.938Z,100613.84
2023-02-27T06:23:53.811Z,100605.31
2023-02-27T06:26:20.696Z,100614.78
2023-02-27T06:28:47.735Z,100628.31
2023-02-27T06:31:14.613Z,100624.00
2023-02-27T06:33:41.507Z,100624.28
2023-02-27T06:36:08.429Z,100631.38
2023-02-27T06:38:35.255Z,100624.28
2023-02-27T06:41:03.953Z,100634.44
2023-02-27T06:43:34.796Z,100642.69
2023-02-27T06:46:01.816Z,100638.78
2023-02-27T06:48:28.961Z,100655.63
2023-02-27T06:50:56.841Z,100644.06
2023-02-27T06:53:24.906Z,100651.75
2023-02-27T06:55:52.874Z,100649.09
2023-02-27T06:58:19.747Z,100648.69
2023-02-27T07:00:46.660Z,100643.78
2023-02-27T07:03:13.469Z,100654.97
2023-02-27T07:05:41.884Z,100646.44
2023-02-27T07:08:09.851Z,100652.03
2023-02-27T07:10:36.811Z,100646.72
2023-02-27T07:13:03.650Z,100653.69
2023-02-27T07:15:30.627Z,100638.91
2023-02-27T07:17:57.477Z,100636.97
2023-02-27T07:20:24.370Z,100644.63
2023-02-27T07:22:51.212Z,100647.56
2023-02-27T07:25:18.153Z,100648.81
2023-02-27T07:27:46.456Z,100656.88
2023-02-27T07:30:13.785Z,100645.75
2023-02-27T07:32:40.692Z,100655.94
2023-02-27T07:35:08.669Z,100661.63
2023-02-27T07:37:38.793Z,100659.69
2023-02-27T07:40:09.191Z,100665.53
2023-02-27T07:42:36.115Z,100666.94
2023-02-27T07:45:03.066Z,100680.03
2023-02-27T07:47:30.644Z,100672.94
2023-02-27T07:49:57.578Z,100675.31
2023-02-27T07:52:25.477Z,100682.25
2023-02-27T07:54:52.560Z,100675.84
2023-02-27T07:57:19.507Z,100673.84
2023-02-27T07:59:49.323Z,100679.69
2023-02-27T08:02:16.226Z,100680.53
2023-02-27T08:04:43.239Z,100687.25
2023-02-27T08:07:10.235Z,100683.63
2023-02-27T08:09:37.080Z,100689.22
2023-02-27T08:12:04.729Z,100686.31
2023-02-27T08:14:31.727Z,100683.38
2023-02-27T08:17:00.396Z,100680.03
2023-02-27T08:19:27.526Z,100699.16
2023-02-27T08:21:54.467Z,100684.50
2023-02-27T08:24:21.928Z,100697.75
2023-02-27T08:26:48.904Z,100688.69
2023-02-27T08:29:17.048Z,100685.19
2023-02-27T08:31:44.379Z,100692.84
2023-02-27T08:34:14.002Z,100696.19
2023-02-27T08:36:41.198Z,100696.28
2023-02-27T08:39:08.996Z,100699.88
2023-02-27T08:41:36.152Z,100692.00
2023-02-27T08:44:03.173Z,100695.13
2023-02-27T08:46:30.374Z,100697.88
2023-02-27T08:48:57.401Z,100700.47
2023-02-27T08:51:24.278Z,100693.63
2023-02-27T08:53:51.157Z,100707.59
2023-02-27T08:56:18.020Z,100706.41
2023-02-27T08:58:44.779Z,100702.97
2023-02-27T09:01:11.736Z,100710.78
2023-02-27T09:03:38.571Z,100716.78
2023-02-27T09:06:05.595Z,100712.28
2023-02-27T09:08:32.684Z,100718.59
2023-02-27T09:10:59.624Z,100725.47
2023-02-27T09:13:26.995Z,100718.19
2023-02-27T09:15:54.354Z,100719.84
2023-02-27T09:18:22.109Z,100719.22
2023-02-27T09:20:51.303Z,100720.38
2023-02-27T09:23:18.643Z,100728.22
2023-02-27T09:25:47.481Z,100721.88
2023-02-27T09:28:14.398Z,100723.66
2023-02-27T09:30:42.198Z,100720.91
2023-02-27T09:33:09.266Z,100729.06
2023-02-27T09:35:36.182Z,100735.38
2023-02-27T09:38:03.602Z,100724.25
2023-02-27T09:40:39.782Z,100733.25
2023-02-27T09:43:17.177Z,100739.94
2023-02-27T09:45:47.035Z,100730.97
2023-02-27T09:48:47.249Z,100725.75
2023-02-27T09:51:19.340Z,100725.47
2023-02-27T09:53:49.400Z,100731.03
2023-02-27T09:56:47.650Z,100716.63
2023-02-27T09:59:42.636Z,100730.03
2023-02-27T10:02:34.911Z,100733.19
2023-02-27T10:05:31.381Z,100730.84
2023-02-27T10:08:06.945Z,100736.91
2023-02-27T10:10:44.761Z,100743.38
2023-02-27T10:13:32.555Z,100728.13
2023-02-27T10:16:00.422Z,100733.50
2023-02-27T10:18:31.997Z,100726.41
2023-02-27T10:21:03.107Z,100725.09
2023-02-27T10:23:51.318Z,100729.66
2023-02-27T10:26:30.172Z,100726.66
2023-02-27T10:29:00.165Z,100714.94
2023-02-27T10:31:31.958Z,100712.72
2023-02-27T10:34:00.880Z,100707.41
2023-02-27T10:36:34.449Z,100713.66
2023-02-27T10:39:07.219Z,100701.19
2023-02-27T10:41:36.380Z,100712.72
2023-02-27T10:44:03.672Z,100722.03
2023-02-27T10:46:34.764Z,100717.25
2023-02-27T10:49:05.763Z,100710.94
2023-02-27T10:51:38.460Z,100721.56
2023-02-27T10:54:21.294Z,100704.31
2023-02-27T10:56:52.342Z,100705.44
2023-02-27T10:59:26.506Z,100708.94
2023-02-27T11:01:57.625Z,100710.75
2023-02-27T11:04:40.601Z,100711.97
2023-02-27T11:07:16.069Z,100708.09
2023-02-27T11:09:43.424Z,100714.00
2023-02-27T11:12:24.567Z,100714.88
2023-02-27T11:14:56.967Z,100719.56
2023-02-27T11:17:32.433Z,100716.47
2023-02-27T11:20:01.415Z,100709.03
2023-02-27T11:22:31.114Z,100712.34
2023-02-27T11:25:30.452Z,100713.81
2023-02-27T11:28:21.427Z,100699.88
2023-02-27T11:31:07.338Z,100707.78
2023-02-27T11:33:38.439Z,100702.34
2023-02-27T11:36:06.255Z,100704.31
2023-02-27T11:38:34.900Z,100698.31
2023-02-27T11:41:07.557Z,100693.16
2023-02-27T11:43:42.927Z,100694.31
2023-02-27T11:46:46.400Z,100696.84
2023-02-27T11:49:33.837Z,100686.59
2023-02-27T11:52:09.586Z,100699.16
2023-02-27T11:54:45.617Z,100681.44
2023-02-27T11:57:35.687Z,100693.91
2023-02-27T12:00:08.569Z,100682.88
2023-02-27T12:02:47.810Z,100687.19
2023-02-27T12:05:36.565Z,100690.69
2023-02-27T12:08:19.643Z,100681.78
2023-02-27T12:11:12.881Z,100686.03
2023-02-27T12:13:43.170Z,100673.50
2023-02-27T12:16:38.556Z,100682.28
2023-02-27T12:19:20.510Z,100678.53
2023-02-27T12:22:19.020Z,100679.69
2023-02-27T12:25:28.915Z,100678.66
2023-02-27T12:28:31.619Z,100685.16
2023-02-27T12:31:13.623Z,100688.00
2023-02-27T12:33:57.662Z,100681.13
2023-02-27T12:36:25.124Z,100685.56
2023-02-27T12:38:52.325Z,100694.75
2023-02-27T12:41:41.836Z,100694.47
2023-02-27T12:44:33.431Z,100696.06
2023-02-27T12:47:18.235Z,100691.44
2023-02-27T12:49:53.736Z,100694.25
2023-02-27T12:52:32.467Z,100692.81
2023-02-27T12:55:14.877Z,100691.63
2023-02-27T12:57:44.775Z,100690.50
2023-02-27T13:00:20.523Z,100697.38
2023-02-27T13:02:57.262Z,100690.31
2023-02-27T13:05:32.707Z,100694.59
2023-02-27T13:08:23.926Z,100694.28
2023-02-27T13:11:04.898Z,100695.19
2023-02-27T13:14:00.853Z,100697.25
2023-02-27T13:16:37.316Z,100705.50
2023-02-27T13:19:15.817Z,100697.31
2023-02-27T13:21:55.045Z,100710.38
2023-02-27T13:24:23.975Z,100715.75
2023-02-27T13:27:03.494Z,100712.81
2023-02-27T13:29:49.487Z,100710.91
2023-02-27T13:32:16.416Z,100720.63
2023-02-27T13:35:02.910Z,100725.81
2023-02-27T13:37:56.688Z,100722.97
2023-02-27T13:40:28.055Z,100727.81
2023-02-27T13:42:58.982Z,100727.38
2023-02-27T13:45:58.181Z,100738.47
2023-02-27T13:48:33.999Z,100730.75
2023-02-27T13:51:01.573Z,100729.75
2023-02-27T13:53:30.073Z,100725.19
2023-02-27T13:56:21.995Z,100734.31
2023-02-27T13:58:50.260Z,100736.72
2023-02-27T14:01:22.675Z,100739.53
2023-02-27T14:03:56.759Z,100743.47
2023-02-27T14:06:26.191Z,100745.59
2023-02-27T14:09:08.789Z,100753.53
2023-02-27T14:11:51.474Z,100750.66
2023-02-27T14:14:50.345Z,100751.69
2023-02-27T14:17:38.637Z,100750.97
2023-02-27T14:20:18.058Z,100754.63
2023-02-27T14:23:06.388Z,100749.44
2023-02-27T14:25:34.878Z,100751.56
2023-02-27T14:28:03.035Z,100748.78
2023-02-27T14:30:43.523Z,100751.06
2023-02-27T14:33:10.362Z,100756.97
2023-02-27T14:35:38.197Z,100749.28
2023-02-27T14:38:10.622Z,100752.78
2023-02-27T14:40:48.347Z,100748.75
2023-02-27T14:43:45.322Z,100747.28
2023-02-27T14:46:36.183Z,100749.91
2023-02-27T14:49:25.246Z,100757.41
2023-02-27T14:51:53.932Z,100763.19
2023-02-27T14:54:26.108Z,100761.94
2023-02-27T14:57:01.111Z,100763.56
2023-02-27T14:59:31.610Z,100766.34
2023-02-27T15:02:02.286Z,100776.75
2023-02-27T15:04:31.019Z,100781.44
2023-02-27T15:06:59.744Z,100776.56
2023-02-27T15:09:43.195Z,100775.91
2023-02-27T15:12:17.740Z,100775.69
2023-02-27T15:14:51.322Z,100782.53
2023-02-27T15:17:24.701Z,100782.41
2023-02-27T15:19:59.624Z,100787.41
2023-02-27T15:22:39.326Z,100784.47
2023-02-27T15:25:27.310Z,100784.50
2023-02-27T15:27:57.867Z,100802.34
2023-02-27T15:30:24.992Z,100800.38
2023-02-27T15:32:54.773Z,100807.34
2023-02-27T15:35:30.236Z,100807.69
2023-02-27T15:38:01.067Z,100813.53
2023-02-27T15:40:33.405Z,100818.13
2023-02-27T15:43:01.519Z,100812.72
2023-02-27T15:45:35.305Z,100820.31
2023-02-27T15:48:03.229Z,100822.19
2023-02-27T15:50:41.692Z,100825.97
2023-02-27T15:53:08.522Z,100830.03
2023-02-27T15:55:39.794Z,100836.19
2023-02-27T15:58:27.773Z,100835.75
2023-02-27T16:01:13.825Z,100832.69
2023-02-27T16:03:48.284Z,100835.75
2023-02-27T16:06:26.707Z,100843.28
2023-02-27T16:09:00.679Z,100850.06
2023-02-27T16:11:31.847Z,100857.78
2023-02-27T16:13:59.441Z,100859.44
2023-02-27T16:16:37.711Z,100854.97
2023-02-27T16:19:28.129Z,100863.59
2023-02-27T16:22:03.784Z,100869.06
2023-02-27T16:24:32.219Z,100867.22
2023-02-27T16:27:00.499Z,100873.78
2023-02-27T16:29:36.833Z,100877.22
2023-02-27T16:32:04.544Z,100890.47
2023-02-27T16:34:47.983Z,100897.53
2023-02-27T16:37:24.266Z,100891.63
2023-02-27T16:39:55.125Z,100899.25
2023-02-27T16:42:22.335Z,100902.75
2023-02-27T16:44:49.243Z,100908.47
2023-02-27T16:47:16.250Z,100907.50
2023-02-27T16:49:44.557Z,100908.19
2023-02-27T16:52:12.300Z,100920.88
2023-02-27T16:54:39.167Z,100914.91
2023-02-27T16:57:06.105Z,100925.91
2023-02-27T16:59:39.977Z,100931.91
2023-02-27T17:02:16.185Z,100929.41
2023-02-27T17:04:44.608Z,100930.84
2023-02-27T17:07:16.231Z,100937.69
2023-02-27T17:09:45.051Z,100938.88
2023-02-27T17:12:12.049Z,100949.53
2023-02-27T17:14:39.003Z,100957.53
2023-02-27T17:17:07.047Z,100961.63
2023-02-27T17:19:35.107Z,100961.38
2023-02-27T17:22:02.238Z,100961.84
2023-02-27T17:24:29.628Z,100973.31
2023-02-27T17:26:56.464Z,100974.75
2023-02-27T17:29:24.236Z,100976.38
2023-02-27T17:31:51.753Z,100976.38
2023-02-27T17:34:18.829Z,100979.19
2023-02-27T17:36:45.998Z,100979.19
2023-02-27T17:39:16.905Z,100981.06
2023-02-27T17:41:44.444Z,100991.66
2023-02-27T17:44:12.196Z,100989.59
2023-02-27T17:46:40.171Z,100988.88
2023-02-27T17:49:07.437Z,100985.34
2023-02-27T17:51:34.358Z,100988.72
2023-02-27T17:54:04.007Z,100990.19
2023-02-27T17:56:31.509Z,100995.06
2023-02-27T17:58:58.655Z,101003.94
2023-02-27T18:01:26.612Z,101004.94
2023-02-27T18:03:54.941Z,101008.41
2023-02-27T18:06:22.935Z,101011.13
2023-02-27T18:08:50.148Z,101013.09
2023-02-27T18:11:20.766Z,101005.94
2023-02-27T18:13:48.711Z,101005.81
2023-02-27T18:16:15.672Z,101008.38
2023-02-27T18:18:43.569Z,101000.31
2023-02-27T18:21:14.400Z,101009.53
2023-02-27T18:23:42.306Z,101005.34
2023-02-27T18:26:27.142Z,100999.09
2023-02-27T18:28:56.874Z,101004.72
2023-02-27T18:31:27.974Z,101009.44
2023-02-27T18:33:55.962Z,101015.56
2023-02-27T18:36:23.114Z,101011.47
2023-02-27T18:38:50.124Z,101014.50
2023-02-27T18:41:17.294Z,101018.94
2023-02-27T18:43:44.680Z,101012.44
2023-02-27T18:46:12.975Z,101022.19
2023-02-27T18:48:40.986Z,101023.41
2023-02-27T18:51:12.412Z,101018.88
2023-02-27T18:53:41.229Z,101022.56
2023-02-27T18:56:09.335Z,101028.69
2023-02-27T18:58:37.093Z,101034.00
2023-02-27T19:01:05.260Z,101035.47
2023-02-27T19:03:32.418Z,101038.56
2023-02-27T19:05:59.501Z,101044.94
2023-02-27T19:08:29.335Z,101047.69
2023-02-27T19:10:58.178Z,101039.91
2023-02-27T19:13:26.105Z,101045.56
2023-02-27T19:15:53.664Z,101051.81
2023-02-27T19:18:20.597Z,101052.41
2023-02-27T19:20:47.824Z,101049.31
2023-02-27T19:23:14.664Z,101058.41
2023-02-27T19:25:46.797Z,101065.28
2023-02-27T19:28:13.881Z,101060.09
2023-02-27T19:30:40.966Z,101063.31
2023-02-27T19:33:08.044Z,101067.41
2023-02-27T19:35:35.089Z,101067.31
2023-02-27T19:38:02.071Z,101071.31
2023-02-27T19:40:29.019Z,101077.69
2023-02-27T19:42:56.046Z,101075.66
2023-02-27T19:45:23.582Z,101072.50
2023-02-27T19:47:50.610Z,101075.53
2023-02-27T19:50:18.002Z,101073.13
2023-02-27T19:52:44.884Z,101075.06
2023-02-27T19:55:12.183Z,101068.06
2023-02-27T19:57:39.120Z,101063.84
2023-02-27T20:00:08.578Z,101062.19
2023-02-27T20:02:42.489Z,101061.44
2023-02-27T20:05:12.224Z,101067.84
2023-02-27T20:07:40.499Z,101074.84
2023-02-27T20:10:07.608Z,101078.31
2023-02-27T20:39:32.736Z,101080.28
2023-02-27T20:41:59.749Z,101072.03
2023-02-27T20:44:26.571Z,101077.94
2023-02-27T20:46:53.590Z,101081.06
2023-02-27T20:49:22.134Z,101081.69
2023-02-27T20:51:49.129Z,101088.38
2023-02-27T20:54:20.732Z,101090.56
2023-02-27T20:56:51.997Z,101084.31
2023-02-27T20:59:21.030Z,101079.16
2023-02-27T21:01:51.797Z,101079.16
2023-02-27T21:04:24.246Z,101089.16
2023-02-27T21:06:51.848Z,101090.19
2023-02-27T21:09:19.082Z,101086.09
2023-02-27T21:11:46.092Z,101078.16
2023-02-27T21:14:12.950Z,101082.16
2023-02-27T21:16:40.728Z,101084.91
2023-02-27T21:19:08.368Z,101080.34
2023-02-27T21:21:36.491Z,101079.25
2023-02-27T21:24:03.642Z,101075.25
2023-02-27T21:26:35.461Z,101075.59
2023-02-27T21:29:06.435Z,101074.03
2023-02-27T21:31:35.593Z,101077.78
2023-02-27T21:34:05.766Z,101077.78
2023-02-27T21:36:38.407Z,101081.16
2023-02-27T21:39:07.346Z,101082.00
2023-02-27T21:41:38.107Z,101085.22
2023-02-27T21:44:06.969Z,101088.13
2023-02-27T21:46:34.503Z,101096.78
2023-02-27T21:49:01.961Z,101088.31
2023-02-27T21:51:40.063Z,101080.38
2023-02-27T21:54:10.617Z,101078.72
2023-02-27T21:56:38.743Z,101067.16
2023-02-27T21:59:06.339Z,101082.06
2023-02-27T22:01:34.036Z,101092.78
2023-02-27T22:04:02.170Z,101092.41
2023-02-27T22:06:34.027Z,101092.97
2023-02-27T22:09:05.009Z,101099.63
2023-02-27T22:11:34.306Z,101099.47
2023-02-27T22:14:01.247Z,101112.69
2023-02-27T22:16:28.190Z,101100.75
2023-02-27T22:18:55.162Z,101103.19
2023-02-27T22:21:25.375Z,101119.56
2023-02-27T22:23:52.266Z,101105.22
2023-02-27T22:26:21.842Z,101111.59
2023-02-27T22:28:48.787Z,101110.50
2023-02-27T22:31:25.310Z,101106.47
2023-02-27T22:33:55.681Z,101115.50
2023-02-27T22:36:29.328Z,101109.56
2023-02-27T22:38:57.006Z,101106.31
2023-02-27T22:41:30.920Z,101112.31
2023-02-27T22:44:00.118Z,101109.94
2023-02-27T22:46:29.922Z,101108.97
2023-02-27T22:49:18.251Z,101101.09
2023-02-27T22:51:47.291Z,101099.44
2023-02-27T22:54:16.458Z,101098.00
2023-02-27T22:56:43.885Z,101098.44
2023-02-27T22:59:11.030Z,101104.31
2023-02-27T23:01:38.477Z,101100.09
2023-02-27T23:04:11.500Z,101101.63
2023-02-27T23:06:40.716Z,101106.22
2023-02-27T23:09:10.951Z,101100.19
2023-02-27T23:11:37.893Z,101102.72
2023-02-27T23:14:04.727Z,101108.28
2023-02-27T23:16:31.652Z,101108.88
2023-02-27T23:18:59.888Z,101112.03
2023-02-27T23:21:35.640Z,101116.81
2023-02-27T23:24:07.306Z,101123.81
2023-02-27T23:26:39.378Z,101123.31
2023-02-27T23:29:07.098Z,101127.06
2023-02-27T23:31:36.136Z,101134.19
2023-02-27T23:34:06.019Z,101125.97
2023-02-27T23:36:34.374Z,101134.09
2023-02-27T23:39:03.085Z,101131.13
2023-02-27T23:41:30.616Z,101133.31
2023-02-27T23:44:16.235Z,101124.66
2023-02-27T23:46:43.417Z,101130.06
2023-02-27T23:49:11.290Z,101130.50
2023-02-27T23:51:38.352Z,101132.06
2023-02-27T23:54:05.271Z,101130.16
2023-02-27T23:56:32.237Z,101137.00
2023-02-27T23:59:02.076Z,101134.72
